Time;durP1;ratioP1;P1;durP2;ratioP2;P2;SDS_P1;SDS_P2;PMS_P1;PMS_P2;Temp;Humidity;BMP_temperature;BMP_pressure;BME280_temperature;BME280_humidity;BME280_pressure;Samples;Min_cycle;Max_cycle;Signal;HPM_P1;HPM_P2
2023/09/09 00:01:08;;;;;;;7.70;5.60;;;19.40;97.90;;;;;;5031716;28;20087;-70
2023/09/09 00:03:54;;;;;;;8.52;5.35;;;19.50;98.20;;;;;;5037847;28;20052;-70
2023/09/09 00:06:40;;;;;;;10.55;5.28;;;19.40;98.20;;;;;;5040285;28;20038;-71
2023/09/09 00:09:26;;;;;;;10.35;5.07;;;19.40;98.10;;;;;;5049059;28;20080;-70
2023/09/09 00:12:12;;;;;;;9.32;5.30;;;19.40;98.40;;;;;;5040363;28;20084;-70
2023/09/09 00:14:58;;;;;;;11.18;5.40;;;19.30;98.50;;;;;;5031929;28;20343;-70
2023/09/09 00:17:44;;;;;;;9.02;5.07;;;19.30;98.50;;;;;;5044502;28;20091;-70
2023/09/09 00:20:34;;;;;;;9.23;5.20;;;19.20;98.60;;;;;;5032140;28;20041;-70
2023/09/09 00:23:20;;;;;;;7.75;5.38;;;19.20;98.80;;;;;;5032380;28;20048;-70
2023/09/09 00:26:06;;;;;;;8.63;5.53;;;19.20;98.90;;;;;;5026824;28;20436;-71
2023/09/09 00:28:52;;;;;;;8.45;5.32;;;19.20;98.80;;;;;;5049974;28;20111;-70
2023/09/09 00:31:37;;;;;;;7.90;5.40;;;19.20;99.10;;;;;;5032644;28;20038;-70
2023/09/09 00:34:24;;;;;;;10.30;5.90;;;19.10;98.90;;;;;;5030787;28;20048;-70
2023/09/09 00:37:10;;;;;;;11.65;5.72;;;19.00;98.90;;;;;;5030675;28;20041;-70
2023/09/09 00:39:56;;;;;;;10.80;5.28;;;19.00;98.80;;;;;;5017470;28;20041;-70
2023/09/09 00:42:42;;;;;;;15.98;5.68;;;19.00;98.90;;;;;;5035237;28;20060;-70
2023/09/09 00:45:27;;;;;;;8.82;5.20;;;19.00;98.80;;;;;;5049648;28;20509;-70
2023/09/09 00:48:13;;;;;;;8.90;5.40;;;19.00;98.90;;;;;;5035449;28;20041;-70
2023/09/09 00:51:00;;;;;;;13.18;5.82;;;18.90;99.10;;;;;;5036556;28;20052;-70
2023/09/09 00:53:46;;;;;;;10.32;5.03;;;18.80;99.10;;;;;;5036893;28;20497;-70
2023/09/09 00:56:34;;;;;;;9.70;5.25;;;18.80;99.10;;;;;;5027544;28;20072;-70
2023/09/09 00:59:20;;;;;;;8.15;5.20;;;18.80;99.20;;;;;;5032447;28;20037;-71
2023/09/09 01:02:06;;;;;;;8.10;5.20;;;18.70;99.30;;;;;;5044979;28;20377;-70
2023/09/09 01:04:52;;;;;;;8.18;4.88;;;18.80;99.20;;;;;;5020672;28;20041;-70
2023/09/09 01:07:56;;;;;;;7.68;5.78;;;18.70;99.30;;;;;;5031021;28;20111;-70
2023/09/09 01:10:42;;;;;;;11.40;5.80;;;18.70;99.40;;;;;;5035708;28;20043;-70
2023/09/09 01:13:29;;;;;;;8.45;5.65;;;18.60;99.20;;;;;;5038787;28;20033;-70
2023/09/09 01:16:15;;;;;;;9.98;5.90;;;18.60;99.20;;;;;;5049003;28;20905;-70
2023/09/09 01:19:14;;;;;;;9.88;5.93;;;18.60;99.10;;;;;;5036169;28;20076;-71
2023/09/09 01:22:03;;;;;;;7.32;5.60;;;18.60;99.30;;;;;;5048644;28;20052;-70
2023/09/09 01:24:49;;;;;;;8.00;5.70;;;18.60;99.50;;;;;;5027363;28;20037;-70
2023/09/09 01:27:35;;;;;;;9.77;5.53;;;18.50;99.40;;;;;;5030734;28;20409;-70
2023/09/09 01:30:23;;;;;;;7.68;5.63;;;18.50;99.40;;;;;;5032200;28;20041;-70
2023/09/09 01:33:09;;;;;;;13.02;5.18;;;18.50;99.60;;;;;;5036375;28;20044;-70
2023/09/09 01:35:55;;;;;;;8.27;5.55;;;18.40;99.80;;;;;;5049527;28;20047;-70
2023/09/09 01:38:41;;;;;;;8.02;5.47;;;18.40;99.90;;;;;;5048256;28;20103;-70
2023/09/09 01:41:27;;;;;;;9.32;6.15;;;18.30;99.90;;;;;;5021926;28;20087;-70
2023/09/09 01:44:13;;;;;;;10.02;5.35;;;18.30;99.90;;;;;;5016626;28;20049;-70
2023/09/09 01:46:58;;;;;;;9.18;5.25;;;18.20;99.90;;;;;;5028358;28;20536;-70
2023/09/09 01:49:44;;;;;;;11.52;5.60;;;18.30;99.90;;;;;;5032327;28;20044;-70
2023/09/09 01:52:30;;;;;;;11.18;6.30;;;18.20;99.90;;;;;;5038869;28;20071;-70
2023/09/09 01:55:16;;;;;;;8.30;5.70;;;18.20;99.90;;;;;;5017543;28;20045;-70
2023/09/09 01:58:04;;;;;;;11.90;6.00;;;18.20;99.90;;;;;;5029523;28;20076;-72
2023/09/09 02:00:50;;;;;;;8.90;5.78;;;18.10;99.90;;;;;;5023088;28;20045;-72
2023/09/09 02:03:36;;;;;;;10.10;5.60;;;18.10;99.90;;;;;;5021830;28;20092;-72
2023/09/09 02:06:22;;;;;;;9.65;5.13;;;18.10;99.90;;;;;;5034558;28;20389;-72
2023/09/09 02:09:08;;;;;;;10.65;6.15;;;18.10;99.90;;;;;;5031238;28;20045;-72
2023/09/09 02:11:54;;;;;;;8.93;6.45;;;18.00;99.90;;;;;;5015366;28;20049;-72
2023/09/09 02:14:40;;;;;;;12.50;6.72;;;18.10;99.90;;;;;;5029078;28;20061;-72
2023/09/09 02:17:26;;;;;;;10.88;6.43;;;18.00;99.90;;;;;;5028725;28;20038;-72
2023/09/09 02:20:12;;;;;;;12.18;6.30;;;18.00;99.90;;;;;;5020135;28;20072;-72
2023/09/09 02:22:58;;;;;;;10.20;7.68;;;18.00;99.90;;;;;;5032746;28;20081;-72
2023/09/09 02:25:44;;;;;;;12.50;6.35;;;17.90;99.90;;;;;;5041689;28;20149;-72
2023/09/09 02:28:30;;;;;;;8.07;5.95;;;17.90;99.90;;;;;;5035892;28;20076;-72
2023/09/09 02:31:16;;;;;;;10.68;5.85;;;17.90;99.90;;;;;;5032079;28;20128;-72
2023/09/09 02:34:02;;;;;;;10.73;6.10;;;17.90;99.90;;;;;;5032621;28;20049;-72
2023/09/09 02:37:16;;;;;;;12.82;5.75;;;17.80;99.90;;;;;;5038908;28;20033;-72
2023/09/09 02:40:03;;;;;;;10.32;5.80;;;17.80;99.90;;;;;;5051340;28;20386;-72
2023/09/09 02:42:49;;;;;;;8.07;6.20;;;17.80;99.90;;;;;;5045050;28;20041;-72
2023/09/09 02:45:35;;;;;;;10.07;7.18;;;17.80;99.90;;;;;;5018623;28;20033;-72
2023/09/09 02:48:21;;;;;;;11.80;6.82;;;17.80;99.90;;;;;;5032462;28;20033;-72
2023/09/09 02:51:07;;;;;;;9.23;7.65;;;17.80;99.90;;;;;;5021660;28;20136;-72
2023/09/09 02:53:53;;;;;;;9.57;6.78;;;17.70;99.90;;;;;;5040719;28;20048;-72
2023/09/09 02:56:39;;;;;;;11.32;7.10;;;17.70;99.90;;;;;;5019502;28;20480;-72
2023/09/09 02:59:25;;;;;;;11.43;7.63;;;17.70;99.90;;;;;;5037828;28;20053;-72
2023/09/09 03:02:11;;;;;;;11.27;7.88;;;17.70;99.90;;;;;;5051160;28;20370;-73
2023/09/09 03:04:57;;;;;;;10.02;7.45;;;17.70;99.90;;;;;;5032349;28;20041;-72
2023/09/09 03:07:44;;;;;;;10.30;7.30;;;17.70;99.90;;;;;;5047192;28;20037;-72
2023/09/09 03:10:30;;;;;;;10.52;7.80;;;17.60;99.90;;;;;;5035535;28;20389;-72
2023/09/09 03:13:16;;;;;;;12.82;7.57;;;17.60;99.90;;;;;;5033038;28;20580;-72
2023/09/09 03:16:03;;;;;;;11.02;7.90;;;17.60;99.90;;;;;;5033343;28;20060;-72
2023/09/09 03:18:49;;;;;;;13.45;8.25;;;17.50;99.90;;;;;;5045625;28;20377;-72
2023/09/09 03:21:35;;;;;;;11.80;8.52;;;17.50;99.90;;;;;;5030457;28;20057;-72
2023/09/09 03:24:22;;;;;;;11.60;8.63;;;17.50;99.90;;;;;;5046951;28;20068;-72
2023/09/09 03:27:08;;;;;;;13.93;8.88;;;17.40;99.90;;;;;;5039095;28;20037;-72
2023/09/09 03:29:54;;;;;;;14.65;9.18;;;17.40;99.90;;;;;;5019990;28;20094;-72
2023/09/09 03:32:40;;;;;;;12.90;8.95;;;17.40;99.90;;;;;;5040355;28;20049;-72
2023/09/09 03:35:26;;;;;;;17.90;8.88;;;17.40;99.90;;;;;;5051640;28;20052;-72
2023/09/09 03:38:12;;;;;;;15.25;8.88;;;17.40;99.90;;;;;;5020668;28;20029;-72
2023/09/09 03:40:58;;;;;;;15.45;8.75;;;17.40;99.90;;;;;;5034045;28;20049;-72
2023/09/09 03:43:44;;;;;;;12.85;9.70;;;17.40;99.90;;;;;;5050434;28;20076;-72
2023/09/09 03:46:30;;;;;;;12.00;9.20;;;17.50;99.90;;;;;;5051325;28;20040;-72
2023/09/09 03:49:16;;;;;;;13.02;8.73;;;17.50;99.90;;;;;;5047877;28;20045;-72
2023/09/09 03:52:02;;;;;;;15.43;9.65;;;17.50;99.90;;;;;;5019503;28;20048;-72
2023/09/09 03:54:48;;;;;;;16.90;9.15;;;17.40;99.90;;;;;;5046264;28;20036;-72
2023/09/09 03:57:34;;;;;;;14.30;9.32;;;17.50;99.90;;;;;;5032191;28;20125;-72
2023/09/09 04:00:20;;;;;;;12.18;9.45;;;17.50;99.90;;;;;;5028357;28;20040;-72
2023/09/09 04:03:06;;;;;;;14.63;9.25;;;17.50;99.90;;;;;;5050767;28;20765;-71
2023/09/09 04:05:52;;;;;;;15.77;8.57;;;17.50;99.90;;;;;;5049908;28;20040;-72
2023/09/09 04:08:39;;;;;;;13.23;9.40;;;17.50;99.90;;;;;;5051301;28;20045;-72
2023/09/09 04:11:25;;;;;;;14.35;9.18;;;17.50;99.90;;;;;;5020166;28;20130;-72
2023/09/09 04:14:12;;;;;;;13.07;9.38;;;17.50;99.90;;;;;;5031402;28;20113;-71
2023/09/09 04:16:58;;;;;;;15.40;9.88;;;17.50;99.90;;;;;;5032113;28;20370;-72
2023/09/09 04:19:44;;;;;;;15.02;10.88;;;17.40;99.90;;;;;;5019899;28;20045;-71
2023/09/09 04:22:30;;;;;;;13.10;9.55;;;17.40;99.90;;;;;;5035560;28;20469;-71
2023/09/09 04:25:26;;;;;;;15.40;9.48;;;17.30;99.90;;;;;;5019062;28;20053;-71
2023/09/09 04:28:13;;;;;;;20.17;9.38;;;17.40;99.90;;;;;;5031856;28;20052;-72
2023/09/09 04:30:59;;;;;;;16.02;10.38;;;17.40;99.90;;;;;;5034885;28;20124;-71
2023/09/09 04:33:45;;;;;;;14.40;9.63;;;17.30;99.90;;;;;;5052712;28;20495;-71
2023/09/09 04:36:31;;;;;;;14.85;10.90;;;17.30;99.90;;;;;;5035745;28;20033;-72
2023/09/09 04:39:17;;;;;;;13.85;10.10;;;17.30;99.90;;;;;;5028537;28;20056;-72
2023/09/09 04:42:03;;;;;;;14.63;9.70;;;17.30;99.90;;;;;;5029959;28;20052;-72
2023/09/09 04:44:49;;;;;;;12.05;8.93;;;17.40;99.90;;;;;;5031104;28;20060;-73
2023/09/09 04:47:35;;;;;;;17.30;9.85;;;17.40;99.90;;;;;;5031867;28;20124;-71
2023/09/09 04:50:21;;;;;;;19.88;10.10;;;17.40;99.90;;;;;;5032391;28;20045;-71
2023/09/09 04:53:07;;;;;;;14.30;10.00;;;17.40;99.90;;;;;;5017426;28;20045;-71
2023/09/09 04:55:53;;;;;;;13.10;9.57;;;17.40;99.90;;;;;;5030083;28;20446;-71
2023/09/09 04:58:39;;;;;;;12.52;8.98;;;17.40;99.90;;;;;;5022474;28;20688;-71
2023/09/09 05:01:25;;;;;;;15.13;8.85;;;17.30;99.90;;;;;;5038842;28;20037;-71
2023/09/09 05:04:11;;;;;;;12.20;8.77;;;17.30;99.90;;;;;;5027207;28;20049;-71
2023/09/09 05:06:57;;;;;;;12.50;9.43;;;17.30;99.90;;;;;;5038680;28;20472;-71
2023/09/09 05:09:43;;;;;;;16.27;9.93;;;17.30;99.90;;;;;;5035651;28;20081;-72
2023/09/09 05:12:29;;;;;;;16.20;9.55;;;17.20;99.90;;;;;;5023965;28;20102;-71
2023/09/09 05:15:16;;;;;;;15.60;10.18;;;17.20;99.90;;;;;;5036927;28;20040;-71
2023/09/09 05:18:03;;;;;;;11.93;9.38;;;17.30;99.90;;;;;;5020370;28;20138;-72
2023/09/09 05:20:49;;;;;;;12.65;8.95;;;17.30;99.90;;;;;;5028670;28;20077;-72
2023/09/09 05:23:35;;;;;;;13.68;9.85;;;17.20;99.90;;;;;;5046375;28;20488;-72
2023/09/09 05:26:21;;;;;;;14.15;9.55;;;17.20;99.90;;;;;;5032626;28;20655;-71
2023/09/09 05:29:07;;;;;;;17.75;10.65;;;17.20;99.90;;;;;;5030700;28;20734;-72
2023/09/09 05:31:53;;;;;;;11.90;8.82;;;17.20;99.90;;;;;;5043690;28;20049;-70
2023/09/09 05:34:39;;;;;;;15.38;9.63;;;17.20;99.90;;;;;;5036917;28;20041;-69
2023/09/09 05:37:28;;;;;;;15.55;9.75;;;17.20;99.90;;;;;;5036298;28;20040;-69
2023/09/09 05:40:14;;;;;;;13.82;10.25;;;17.20;99.90;;;;;;5042023;28;20067;-69
2023/09/09 05:43:00;;;;;;;16.02;10.82;;;17.30;99.90;;;;;;5030742;28;20041;-69
2023/09/09 05:45:46;;;;;;;14.93;9.60;;;17.20;99.90;;;;;;5031603;28;20696;-69
2023/09/09 05:48:32;;;;;;;16.42;10.88;;;17.30;99.90;;;;;;5040295;28;20044;-70
2023/09/09 05:51:18;;;;;;;17.40;10.52;;;17.30;99.90;;;;;;5006048;28;20041;-70
2023/09/09 05:54:04;;;;;;;16.38;10.30;;;17.30;99.90;;;;;;5040681;28;20485;-69
2023/09/09 05:56:50;;;;;;;18.38;10.57;;;17.30;99.90;;;;;;5052946;28;20133;-72
2023/09/09 05:59:37;;;;;;;13.73;10.07;;;17.30;99.90;;;;;;5034719;28;20037;-72
2023/09/09 06:02:23;;;;;;;14.80;10.50;;;17.30;99.90;;;;;;5024266;28;20041;-72
2023/09/09 06:05:09;;;;;;;18.38;10.57;;;17.40;99.90;;;;;;5032040;28;20077;-71
2023/09/09 06:07:56;;;;;;;17.45;10.57;;;17.40;99.90;;;;;;5021162;28;20041;-69
2023/09/09 06:10:42;;;;;;;13.33;9.67;;;17.40;99.90;;;;;;5034371;28;20067;-70
2023/09/09 06:13:28;;;;;;;14.45;10.73;;;17.50;99.90;;;;;;5039353;28;20037;-70
2023/09/09 06:16:14;;;;;;;13.98;10.07;;;17.40;99.90;;;;;;5032468;28;20091;-70
2023/09/09 06:19:00;;;;;;;15.55;10.18;;;17.40;99.90;;;;;;5045628;28;20411;-70
2023/09/09 06:21:46;;;;;;;12.40;9.82;;;17.50;99.90;;;;;;5022007;28;20041;-70
2023/09/09 06:24:32;;;;;;;14.93;10.63;;;17.50;99.90;;;;;;5034226;28;20772;-70
2023/09/09 06:27:18;;;;;;;12.38;10.07;;;17.50;99.90;;;;;;5033449;28;20045;-70
2023/09/09 06:30:04;;;;;;;16.10;10.73;;;17.60;99.90;;;;;;5046127;28;20037;-70
2023/09/09 06:32:50;;;;;;;16.15;11.23;;;17.50;99.90;;;;;;5050956;28;20041;-70
2023/09/09 06:35:46;;;;;;;13.85;10.30;;;17.60;99.90;;;;;;5053340;28;20041;-70
2023/09/09 06:38:32;;;;;;;16.40;11.15;;;17.60;99.90;;;;;;5024758;28;20033;-70
2023/09/09 06:41:19;;;;;;;15.45;10.82;;;17.60;99.90;;;;;;5024044;28;20098;-70
2023/09/09 06:44:06;;;;;;;19.88;10.68;;;17.70;99.90;;;;;;5034587;28;20045;-70
2023/09/09 06:46:52;;;;;;;16.08;9.85;;;17.80;99.90;;;;;;5019660;28;20445;-70
2023/09/09 06:49:38;;;;;;;14.25;10.13;;;17.80;99.90;;;;;;5024848;28;20372;-70
2023/09/09 06:52:24;;;;;;;14.13;10.65;;;17.90;99.90;;;;;;5024170;28;20128;-70
2023/09/09 06:55:10;;;;;;;14.20;9.40;;;18.00;99.90;;;;;;5033739;28;20037;-70
2023/09/09 06:57:56;;;;;;;17.33;9.10;;;18.00;99.90;;;;;;5040695;28;20083;-70
2023/09/09 07:00:51;;;;;;;15.85;9.98;;;18.10;99.90;;;;;;5033841;28;20060;-70
2023/09/09 07:03:37;;;;;;;11.48;8.70;;;18.20;99.90;;;;;;5032836;28;20034;-70
2023/09/09 07:06:23;;;;;;;18.67;9.80;;;18.30;99.90;;;;;;5050194;28;20040;-70
2023/09/09 07:09:10;;;;;;;12.13;8.88;;;18.40;99.90;;;;;;5021708;28;20037;-70
2023/09/09 07:11:58;;;;;;;13.35;8.82;;;18.50;99.90;;;;;;5035425;28;20042;-70
2023/09/09 07:14:44;;;;;;;11.98;9.25;;;18.50;99.90;;;;;;5023279;28;20047;-70
2023/09/09 07:17:30;;;;;;;10.77;8.30;;;18.60;99.90;;;;;;5029609;28;20327;-70
2023/09/09 07:20:16;;;;;;;12.32;8.63;;;18.70;99.90;;;;;;5021378;28;20397;-70
2023/09/09 07:23:02;;;;;;;13.50;8.00;;;18.80;99.90;;;;;;5038919;28;20095;-72
2023/09/09 07:25:48;;;;;;;12.23;8.27;;;18.90;99.90;;;;;;5045308;28;20041;-72
2023/09/09 07:28:34;;;;;;;11.55;8.18;;;18.90;99.90;;;;;;5022054;28;20045;-73
2023/09/09 07:31:20;;;;;;;13.10;8.63;;;19.00;99.90;;;;;;5043744;28;20631;-71
2023/09/09 07:34:08;;;;;;;11.32;7.32;;;19.10;99.90;;;;;;5043636;28;20045;-71
2023/09/09 07:36:53;;;;;;;12.05;7.35;;;19.20;99.90;;;;;;5043232;28;20033;-70
2023/09/09 07:39:49;;;;;;;10.70;7.00;;;19.30;99.90;;;;;;5020334;28;20045;-70
2023/09/09 07:42:35;;;;;;;10.77;7.10;;;19.40;99.90;;;;;;5023981;28;20037;-70
2023/09/09 07:45:21;;;;;;;10.57;7.03;;;19.50;99.90;;;;;;5038823;28;20066;-70
2023/09/09 07:48:07;;;;;;;13.93;7.25;;;19.60;99.90;;;;;;5035947;28;20041;-70
2023/09/09 07:50:54;;;;;;;11.48;7.60;;;19.70;99.90;;;;;;5045432;28;20034;-70
2023/09/09 07:53:40;;;;;;;9.98;6.85;;;19.70;99.90;;;;;;5019268;28;20355;-70
2023/09/09 07:56:26;;;;;;;12.07;7.70;;;19.90;99.90;;;;;;5012334;28;20211;-70
2023/09/09 07:59:12;;;;;;;10.30;7.18;;;20.00;99.90;;;;;;5030941;28;20417;-71
2023/09/09 08:01:58;;;;;;;9.35;6.85;;;20.00;99.90;;;;;;5038028;28;20044;-72
2023/09/09 08:04:45;;;;;;;9.52;6.47;;;20.10;99.90;;;;;;5036999;28;20124;-72
2023/09/09 08:07:32;;;;;;;9.87;6.37;;;20.20;99.90;;;;;;5034459;28;20425;-71
2023/09/09 08:10:20;;;;;;;13.25;6.57;;;20.30;99.90;;;;;;5038788;28;20323;-71
2023/09/09 08:13:06;;;;;;;;;;;20.40;99.90;;;;;;5037513;28;20710;-71
2023/09/09 08:15:52;;;;;;;9.65;6.50;;;20.50;99.90;;;;;;5049922;28;19998;-71
2023/09/09 08:18:38;;;;;;;10.70;6.38;;;20.60;99.90;;;;;;5026553;28;20075;-71
2023/09/09 08:21:24;;;;;;;8.30;5.63;;;20.80;99.90;;;;;;5036069;28;20099;-71
2023/09/09 08:24:10;;;;;;;9.50;6.57;;;20.90;99.90;;;;;;5036441;28;20102;-71
2023/09/09 08:26:56;;;;;;;13.68;6.00;;;21.00;99.90;;;;;;5017178;28;20040;-71
2023/09/09 08:29:42;;;;;;;11.77;5.88;;;21.10;99.90;;;;;;5032294;28;20410;-71
2023/09/09 08:32:28;;;;;;;9.80;5.55;;;21.20;99.90;;;;;;5032556;28;20044;-71
2023/09/09 08:35:14;;;;;;;11.98;5.35;;;21.30;99.90;;;;;;5018852;28;20045;-72
2023/09/09 08:38:01;;;;;;;7.78;6.00;;;21.50;99.90;;;;;;5018130;28;20047;-72
2023/09/09 08:41:05;;;;;;;10.48;6.50;;;21.50;99.90;;;;;;5034722;28;20040;-71
2023/09/09 08:44:06;;;;;;;7.45;5.43;;;21.60;99.90;;;;;;5034244;28;20128;-72
2023/09/09 08:46:57;;;;;;;9.02;5.65;;;21.70;99.90;;;;;;5036539;28;20789;-71
2023/09/09 08:49:43;;;;;;;14.05;6.22;;;21.80;99.90;;;;;;5049685;28;20043;-73
2023/09/09 08:52:29;;;;;;;6.45;4.93;;;21.90;99.90;;;;;;5020279;28;20159;-72
2023/09/09 08:55:15;;;;;;;7.97;4.82;;;22.10;99.90;;;;;;5043504;28;20033;-71
2023/09/09 08:58:01;;;;;;;7.07;4.43;;;22.40;99.90;;;;;;5011894;28;20152;-72
2023/09/09 09:00:49;;;;;;;7.72;4.90;;;22.40;99.60;;;;;;5012288;28;20528;-71
2023/09/09 09:03:35;;;;;;;9.95;5.20;;;22.50;99.50;;;;;;5030929;28;20099;-71
2023/09/09 09:06:21;;;;;;;10.50;6.50;;;22.60;99.30;;;;;;5046407;28;20037;-71
2023/09/09 09:09:06;;;;;;;7.47;4.95;;;22.60;98.80;;;;;;5029084;28;20186;-72
2023/09/09 09:11:52;;;;;;;8.98;4.97;;;22.80;98.90;;;;;;5045390;28;20150;-73
2023/09/09 09:14:46;;;;;;;11.35;5.25;;;22.90;98.80;;;;;;5024331;28;20037;-71
2023/09/09 09:17:32;;;;;;;9.75;4.78;;;22.90;98.70;;;;;;5036929;28;20053;-71
2023/09/09 09:20:38;;;;;;;10.48;5.10;;;23.10;98.80;;;;;;5017284;28;20041;-72
2023/09/09 09:23:24;;;;;;;10.25;4.75;;;23.20;98.60;;;;;;5030950;28;20040;-73
2023/09/09 09:26:26;;;;;;;9.80;4.65;;;23.30;98.50;;;;;;5030978;28;20033;-73
2023/09/09 09:29:12;;;;;;;9.40;4.57;;;23.40;98.70;;;;;;5041004;28;20045;-72
2023/09/09 09:31:58;;;;;;;10.52;5.00;;;23.50;98.00;;;;;;5034403;28;20128;-75
2023/09/09 09:34:44;;;;;;;12.68;5.50;;;23.60;97.80;;;;;;5037400;28;20041;-75
2023/09/09 09:37:30;;;;;;;11.88;5.45;;;23.80;98.10;;;;;;5045783;28;20385;-74
2023/09/09 09:40:19;;;;;;;8.00;5.43;;;23.90;96.40;;;;;;5019207;28;20045;-75
2023/09/09 09:43:06;;;;;;;8.43;4.63;;;24.10;96.60;;;;;;5034913;28;20474;-75
2023/09/09 09:45:52;;;;;;;7.13;5.03;;;24.30;96.00;;;;;;5034701;28;20041;-74
2023/09/09 09:48:39;;;;;;;7.43;4.90;;;24.30;94.70;;;;;;5037691;28;20034;-73
2023/09/09 09:51:24;;;;;;;9.23;4.90;;;24.50;94.90;;;;;;5018367;28;20381;-74
2023/09/09 09:54:15;;;;;;;10.45;4.45;;;24.60;95.30;;;;;;5031286;28;20044;-75
2023/09/09 09:57:02;;;;;;;10.45;5.28;;;24.70;93.90;;;;;;5030250;28;20411;-73
2023/09/09 09:59:48;;;;;;;7.75;4.85;;;24.90;93.40;;;;;;5018315;28;20033;-74
2023/09/09 10:02:34;;;;;;;9.63;4.32;;;25.10;93.50;;;;;;5030523;28;20072;-75
2023/09/09 10:05:22;;;;;;;8.80;5.20;;;25.20;93.50;;;;;;5017172;28;20427;-74
2023/09/09 10:08:20;;;;;;;7.72;4.28;;;25.40;93.70;;;;;;5016545;28;20049;-74
2023/09/09 10:11:07;;;;;;;6.85;4.55;;;25.40;93.50;;;;;;5040976;28;20044;-75
2023/09/09 10:14:01;;;;;;;11.60;6.25;;;25.60;93.00;;;;;;5015668;28;20414;-75
2023/09/09 10:16:47;;;;;;;10.82;4.78;;;25.80;93.20;;;;;;5045555;28;20037;-74
2023/09/09 10:19:35;;;;;;;8.20;4.75;;;26.00;93.00;;;;;;5022248;28;20061;-74
2023/09/09 10:22:21;;;;;;;8.90;4.50;;;26.00;92.00;;;;;;5036087;28;20056;-75
2023/09/09 10:25:10;;;;;;;9.13;4.40;;;26.30;91.90;;;;;;5022909;28;20056;-74
2023/09/09 10:27:59;;;;;;;7.45;4.35;;;26.30;92.40;;;;;;5016506;28;20104;-75
2023/09/09 10:30:45;;;;;;;7.80;4.43;;;26.40;92.40;;;;;;5030450;28;20187;-76
2023/09/09 10:33:31;;;;;;;6.13;4.10;;;26.50;91.10;;;;;;5033926;28;20501;-74
2023/09/09 10:36:20;;;;;;;6.63;4.30;;;26.50;91.20;;;;;;5034616;28;20497;-74
2023/09/09 10:39:06;;;;;;;7.78;4.97;;;26.60;91.80;;;;;;5035388;28;20421;-75
2023/09/09 10:41:54;;;;;;;7.50;4.60;;;26.80;91.70;;;;;;5024353;28;20175;-75
2023/09/09 10:44:48;;;;;;;;;;;26.90;91.10;;;;;;5035951;28;20079;-75
2023/09/09 10:47:34;;;;;;;8.25;4.78;;;26.90;91.00;;;;;;5032438;28;20257;-76
2023/09/09 10:50:20;;;;;;;11.43;5.05;;;27.10;90.50;;;;;;5033989;28;20041;-75
2023/09/09 10:53:26;;;;;;;12.90;5.30;;;27.20;89.00;;;;;;5034207;28;20075;-74
2023/09/09 10:56:15;;;;;;;11.43;5.00;;;27.30;88.00;;;;;;5033738;28;20123;-74
2023/09/09 10:59:17;;;;;;;7.82;4.45;;;27.40;87.40;;;;;;5040672;28;20091;-75
2023/09/09 11:02:13;;;;;;;9.88;3.60;;;27.50;89.60;;;;;;5027595;28;20801;-75
2023/09/09 11:05:10;;;;;;;7.28;3.42;;;27.60;86.50;;;;;;5030098;28;20470;-74
2023/09/09 11:07:56;;;;;;;6.13;3.40;;;27.80;81.70;;;;;;5040787;28;20045;-73
2023/09/09 11:10:42;;;;;;;8.02;3.75;;;27.80;80.40;;;;;;5036976;28;20037;-74
2023/09/09 11:13:57;;;;;;;9.63;4.00;;;27.90;80.60;;;;;;5043467;28;20045;-75
2023/09/09 11:16:46;;;;;;;6.25;3.55;;;28.00;79.90;;;;;;5043348;28;20037;-74
2023/09/09 11:19:32;;;;;;;6.13;3.30;;;28.20;80.40;;;;;;5030149;28;20111;-75
2023/09/09 11:22:17;;;;;;;5.28;3.65;;;28.20;78.40;;;;;;5038583;28;20118;-75
2023/09/09 11:25:04;;;;;;;7.53;3.65;;;28.30;79.70;;;;;;5047748;28;20048;-75
2023/09/09 11:27:50;;;;;;;7.97;3.50;;;28.40;77.80;;;;;;5024622;28;20051;-74
2023/09/09 11:30:42;;;;;;;5.63;3.35;;;28.50;77.80;;;;;;5031743;28;20037;-75
2023/09/09 11:33:28;;;;;;;8.40;3.65;;;28.50;75.20;;;;;;5025600;28;20616;-76
2023/09/09 11:36:17;;;;;;;5.70;3.00;;;28.50;75.20;;;;;;5030327;28;20041;-76
2023/09/09 11:39:06;;;;;;;7.00;3.33;;;28.60;78.00;;;;;;5029939;28;20033;-76
2023/09/09 11:41:52;;;;;;;4.78;3.13;;;28.70;76.20;;;;;;5029205;28;20065;-76
2023/09/09 11:44:41;;;;;;;6.95;3.33;;;28.80;74.20;;;;;;5043939;28;20124;-74
2023/09/09 11:47:27;;;;;;;4.60;3.05;;;28.70;72.60;;;;;;5030263;28;20056;-75
2023/09/09 11:50:14;;;;;;;5.70;2.85;;;28.80;73.20;;;;;;5021110;28;20470;-75
2023/09/09 11:53:00;;;;;;;8.02;3.55;;;29.00;73.20;;;;;;5006700;28;20091;-74
2023/09/09 11:55:45;;;;;;;4.47;3.50;;;29.10;73.40;;;;;;5050052;28;20090;-75
2023/09/09 11:58:39;;;;;;;9.13;3.47;;;29.20;72.80;;;;;;5025626;28;20060;-76
2023/09/09 12:01:25;;;;;;;5.47;3.40;;;29.20;72.30;;;;;;5041146;28;20037;-76
2023/09/09 12:04:12;;;;;;;7.78;3.95;;;29.30;72.10;;;;;;5036970;28;20056;-76
2023/09/09 12:07:01;;;;;;;8.30;3.40;;;29.40;73.60;;;;;;5010508;28;20056;-76
2023/09/09 12:09:47;;;;;;;6.60;3.80;;;29.50;75.30;;;;;;5039135;28;20748;-76
2023/09/09 12:12:33;;;;;;;7.70;4.00;;;29.50;72.60;;;;;;5030948;28;20041;-76
2023/09/09 12:15:19;;;;;;;5.88;3.65;;;29.60;73.00;;;;;;5035937;28;20037;-76
2023/09/09 12:18:10;;;;;;;6.85;3.35;;;29.70;72.20;;;;;;5031194;28;20084;-76
2023/09/09 12:21:07;;;;;;;6.45;3.90;;;29.70;70.70;;;;;;5031397;28;20083;-75
2023/09/09 12:23:58;;;;;;;4.93;3.63;;;29.80;69.90;;;;;;5021172;28;20030;-74
2023/09/09 12:26:51;;;;;;;6.40;3.67;;;30.00;70.60;;;;;;5019567;28;20037;-76
2023/09/09 12:29:46;;;;;;;6.10;3.65;;;30.10;69.90;;;;;;5049811;28;20070;-75
2023/09/09 12:32:33;;;;;;;5.30;3.17;;;30.20;70.20;;;;;;5032731;28;20132;-76
2023/09/09 12:35:19;;;;;;;8.57;3.20;;;30.20;69.90;;;;;;5032385;28;20327;-76
2023/09/09 12:38:05;;;;;;;6.13;3.42;;;30.40;70.30;;;;;;5015327;28;20041;-75
2023/09/09 12:41:02;;;;;;;6.82;3.28;;;30.40;67.50;;;;;;5021680;28;20041;-75
2023/09/09 12:43:50;;;;;;;6.32;3.33;;;30.50;68.10;;;;;;5011290;28;20064;-76
2023/09/09 12:46:36;;;;;;;5.00;3.53;;;30.70;67.70;;;;;;5005131;28;20042;-76
2023/09/09 12:49:27;;;;;;;4.88;3.53;;;30.80;65.90;;;;;;5030674;28;20095;-76
2023/09/09 12:52:13;;;;;;;5.18;3.28;;;30.90;68.20;;;;;;5033156;28;20049;-76
2023/09/09 12:54:59;;;;;;;6.55;3.40;;;31.10;67.30;;;;;;5045204;28;20033;-76
2023/09/09 12:57:46;;;;;;;6.78;3.30;;;31.30;68.60;;;;;;5036758;28;20037;-77
2023/09/09 13:00:33;;;;;;;8.13;3.80;;;31.40;67.00;;;;;;5020556;28;20056;-77
2023/09/09 13:03:20;;;;;;;9.40;3.78;;;31.40;65.50;;;;;;5024140;28;20036;-77
2023/09/09 13:06:06;;;;;;;8.35;3.80;;;31.50;66.10;;;;;;5046087;28;20060;-74
2023/09/09 13:08:52;;;;;;;5.57;3.33;;;31.80;65.20;;;;;;5023022;28;20041;-73
2023/09/09 13:11:39;;;;;;;6.80;3.90;;;31.90;66.60;;;;;;5033015;28;20096;-72
2023/09/09 13:14:25;;;;;;;6.07;3.88;;;31.90;64.10;;;;;;5039478;28;20109;-72
2023/09/09 13:17:11;;;;;;;4.70;3.60;;;32.20;64.90;;;;;;5032011;28;20041;-73
2023/09/09 13:19:57;;;;;;;6.90;3.63;;;32.70;63.80;;;;;;5043223;28;20565;-72
2023/09/09 13:22:43;;;;;;;6.85;3.70;;;32.90;63.90;;;;;;5035952;28;20049;-71
2023/09/09 13:25:29;;;;;;;8.80;3.90;;;33.10;62.70;;;;;;5036023;28;20540;-73
2023/09/09 13:28:15;;;;;;;5.35;3.63;;;33.10;63.00;;;;;;5037548;28;20049;-73
2023/09/09 13:31:01;;;;;;;6.70;3.47;;;33.20;63.10;;;;;;5033561;28;20065;-72
2023/09/09 13:33:47;;;;;;;5.68;3.65;;;33.30;62.70;;;;;;5036007;28;20313;-73
2023/09/09 13:36:33;;;;;;;7.00;3.40;;;33.80;63.70;;;;;;5038168;28;20041;-72
2023/09/09 13:39:19;;;;;;;4.28;3.28;;;33.80;62.70;;;;;;5038025;28;20681;-72
2023/09/09 13:42:05;;;;;;;5.53;3.03;;;33.40;61.70;;;;;;5016537;28;20060;-71
2023/09/09 13:44:51;;;;;;;8.65;3.70;;;33.10;61.00;;;;;;5037855;28;20512;-72
2023/09/09 13:47:38;;;;;;;6.18;3.55;;;33.30;62.20;;;;;;5036961;28;20122;-72
2023/09/09 13:50:24;;;;;;;6.82;3.90;;;33.90;63.50;;;;;;5020938;28;20121;-73
2023/09/09 13:53:11;;;;;;;7.68;3.50;;;34.00;61.60;;;;;;5030475;28;20048;-72
2023/09/09 13:55:57;;;;;;;6.05;3.60;;;34.20;61.90;;;;;;5044782;28;20045;-72
2023/09/09 13:58:43;;;;;;;4.43;3.38;;;34.30;60.60;;;;;;5017658;28;20048;-73
2023/09/09 14:01:29;;;;;;;6.80;3.72;;;34.30;59.30;;;;;;5029067;28;20415;-73
2023/09/09 14:04:15;;;;;;;6.93;3.55;;;33.70;59.30;;;;;;5028343;28;20064;-72
2023/09/09 14:07:01;;;;;;;8.25;3.50;;;33.70;59.30;;;;;;5029318;28;20038;-71
2023/09/09 14:09:47;;;;;;;6.90;3.70;;;34.20;59.90;;;;;;5027842;28;20502;-72
2023/09/09 14:12:33;;;;;;;5.07;3.30;;;34.40;59.70;;;;;;5027782;28;20045;-73
2023/09/09 14:15:19;;;;;;;6.85;3.08;;;34.80;59.50;;;;;;5030164;28;20327;-72
2023/09/09 14:18:05;;;;;;;4.75;3.20;;;34.80;58.60;;;;;;5031658;28;20466;-73
2023/09/09 14:20:55;;;;;;;5.38;3.42;;;35.00;57.70;;;;;;5031893;28;20049;-73
2023/09/09 14:23:42;;;;;;;7.05;3.78;;;35.10;58.10;;;;;;5031736;28;20038;-73